Avondale, Maryland
Current Conditions -  °F | °C
As of 11:05 AM on Tuesday 21 Oct 2014 (Local Time) from KCGS Reporting Station
Overcast Overcast  
Wind Chill: 64°   Ceiling: 11000
Heat Index: 64°   Visibility: 10mi
Dew Point: 50°   Wind: 0mph
Humidity: 59%   Direction: NA
Pressure: 29.86"   Gusts: NA
Location:  38.9677°N, 76.9584°W
Report Text: KCGS 211505Z AUTO 00000KT 10SM OVC110 18/10 A2986 RMK AO1
Loading
Personal Weather Stations






























Interactive Weather Map
Tropical Storm Tracking
New forecast layout! Learn more

10-Day Weather Forecast

Advertisements
Track Severe Weather on mobile